createdAt,value
2024-01-14T00:00:11.298Z,100.00
2024-01-14T00:02:39.972Z,100.00
2024-01-14T00:05:08.339Z,100.00
2024-01-14T00:07:39.151Z,100.00
2024-01-14T00:10:07.198Z,100.00
2024-01-14T00:12:34.422Z,100.00
2024-01-14T00:15:02.151Z,100.00
2024-01-14T00:17:32.850Z,100.00
2024-01-14T00:20:02.081Z,100.00
2024-01-14T00:22:29.381Z,100.00
2024-01-14T00:24:56.404Z,100.00
2024-01-14T00:27:23.608Z,100.00
2024-01-14T00:29:51.535Z,100.00
2024-01-14T00:32:18.584Z,100.00
2024-01-14T00:34:45.653Z,100.00
2024-01-14T00:37:12.709Z,100.00
2024-01-14T00:39:39.975Z,100.00
2024-01-14T00:42:07.915Z,100.00
2024-01-14T00:44:35.373Z,100.00
2024-01-14T00:47:03.797Z,100.00
2024-01-14T00:49:31.269Z,100.00
2024-01-14T00:51:58.766Z,100.00
2024-01-14T00:54:26.063Z,100.00
2024-01-14T00:56:53.523Z,100.00
2024-01-14T00:59:20.745Z,100.00
2024-01-14T01:01:48.250Z,100.00
2024-01-14T01:04:15.396Z,100.00
2024-01-14T01:06:42.592Z,100.00
2024-01-14T01:09:09.787Z,100.00
2024-01-14T01:11:37.085Z,100.00
2024-01-14T01:14:05.093Z,100.00
2024-01-14T01:16:32.407Z,100.00
2024-01-14T01:18:59.625Z,100.00
2024-01-14T01:21:27.231Z,100.00
2024-01-14T01:23:54.468Z,100.00
2024-01-14T01:26:21.844Z,100.00
2024-01-14T01:28:48.926Z,100.00
2024-01-14T01:31:22.058Z,100.00
2024-01-14T01:33:54.936Z,100.00
2024-01-14T01:36:22.141Z,100.00
2024-01-14T01:38:49.301Z,100.00
2024-01-14T01:41:16.426Z,100.00
2024-01-14T01:43:43.502Z,100.00
2024-01-14T01:46:10.680Z,100.00
2024-01-14T01:48:38.380Z,100.00
2024-01-14T01:51:06.756Z,100.00
2024-01-14T01:53:34.050Z,100.00
2024-01-14T01:56:02.395Z,100.00
2024-01-14T01:58:29.504Z,100.00
2024-01-14T02:00:56.645Z,100.00
2024-01-14T02:03:24.822Z,100.00
2024-01-14T02:05:58.477Z,100.00
2024-01-14T02:08:26.450Z,100.00
2024-01-14T02:10:54.148Z,100.00
2024-01-14T02:13:21.503Z,100.00
2024-01-14T02:15:48.518Z,100.00
2024-01-14T02:18:15.809Z,100.00
2024-01-14T02:20:43.182Z,100.00
2024-01-14T02:23:14.430Z,100.00
2024-01-14T02:25:41.540Z,100.00
2024-01-14T02:28:08.756Z,100.00
2024-01-14T02:30:37.160Z,100.00
2024-01-14T02:33:04.798Z,100.00
2024-01-14T02:35:31.935Z,100.00
2024-01-14T02:37:59.185Z,100.00
2024-01-14T02:40:26.240Z,100.00
2024-01-14T02:42:53.328Z,100.00
2024-01-14T02:45:20.542Z,100.00
2024-01-14T02:47:47.687Z,100.00
2024-01-14T02:50:14.832Z,100.00
2024-01-14T02:52:41.899Z,100.00
2024-01-14T02:55:09.869Z,100.00
2024-01-14T02:57:37.463Z,100.00
2024-01-14T03:00:05.446Z,100.00
2024-01-14T03:02:32.546Z,100.00
2024-01-14T03:05:00.022Z,100.00
2024-01-14T03:07:27.060Z,100.00
2024-01-14T03:09:54.123Z,100.00
2024-01-14T03:12:21.174Z,100.00
2024-01-14T03:14:48.508Z,100.00
2024-01-14T03:17:15.563Z,100.00
2024-01-14T03:19:42.635Z,100.00
2024-01-14T03:22:09.722Z,100.00
2024-01-14T03:24:36.848Z,100.00
2024-01-14T03:27:05.618Z,100.00
2024-01-14T03:29:32.707Z,100.00
2024-01-14T03:31:59.787Z,100.00
2024-01-14T03:34:28.002Z,100.00
2024-01-14T03:36:55.070Z,100.00
2024-01-14T03:39:22.151Z,100.00
2024-01-14T03:41:49.822Z,100.00
2024-01-14T03:44:17.297Z,100.00
2024-01-14T03:46:45.644Z,100.00
2024-01-14T03:49:12.798Z,100.00
2024-01-14T03:51:42.435Z,100.00
2024-01-14T03:54:09.603Z,100.00
2024-01-14T03:56:36.695Z,100.00
2024-01-14T03:59:03.757Z,100.00
2024-01-14T04:01:30.954Z,100.00
2024-01-14T04:03:58.328Z,100.00
2024-01-14T04:06:25.604Z,100.00
2024-01-14T04:08:52.760Z,100.00
2024-01-14T04:11:19.800Z,100.00
2024-01-14T04:13:46.865Z,100.00
2024-01-14T04:16:13.939Z,100.00
2024-01-14T04:18:41.034Z,100.00
2024-01-14T04:21:08.291Z,100.00
2024-01-14T04:23:35.363Z,100.00
2024-01-14T04:26:07.162Z,100.00
2024-01-14T04:28:34.195Z,100.00
2024-01-14T04:31:01.308Z,100.00
2024-01-14T04:33:28.782Z,100.00
2024-01-14T04:35:56.409Z,100.00
2024-01-14T04:38:23.471Z,100.00
2024-01-14T04:40:51.012Z,100.00
2024-01-14T04:43:18.341Z,100.00
2024-01-14T04:45:45.556Z,100.00
2024-01-14T04:48:12.917Z,100.00
2024-01-14T04:50:42.482Z,100.00
2024-01-14T04:53:09.668Z,100.00
2024-01-14T04:55:36.685Z,100.00
2024-01-14T04:58:03.948Z,100.00
2024-01-14T05:00:31.504Z,100.00
2024-01-14T05:02:58.682Z,100.00
2024-01-14T05:05:25.910Z,100.00
2024-01-14T05:07:53.209Z,100.00
2024-01-14T05:10:20.381Z,100.00
2024-01-14T05:12:47.554Z,100.00
2024-01-14T05:15:14.612Z,100.00
2024-01-14T05:17:42.510Z,100.00
2024-01-14T05:20:12.758Z,100.00
2024-01-14T05:22:39.817Z,100.00
2024-01-14T05:25:07.368Z,100.00
2024-01-14T05:27:34.554Z,100.00
2024-01-14T05:30:04.126Z,100.00
2024-01-14T05:32:31.318Z,100.00
2024-01-14T05:34:58.884Z,100.00
2024-01-14T05:37:26.008Z,100.00
2024-01-14T05:39:53.489Z,100.00
2024-01-14T05:42:20.568Z,100.00
2024-01-14T05:44:47.728Z,100.00
2024-01-14T05:47:14.844Z,100.00
2024-01-14T05:49:42.466Z,100.00
2024-01-14T05:52:09.658Z,100.00
2024-01-14T05:54:36.836Z,100.00
2024-01-14T05:57:04.070Z,100.00
2024-01-14T05:59:32.076Z,100.00
2024-01-14T06:01:59.132Z,100.00
2024-01-14T06:04:26.358Z,100.00
2024-01-14T06:06:53.582Z,100.00
2024-01-14T06:09:20.756Z,100.00
2024-01-14T06:11:47.997Z,100.00
2024-01-14T06:14:15.135Z,100.00
2024-01-14T06:16:42.658Z,100.00
2024-01-14T06:19:09.873Z,100.00
2024-01-14T06:21:44.034Z,100.00
2024-01-14T06:24:14.375Z,100.00
2024-01-14T06:26:41.488Z,100.00
2024-01-14T06:29:08.507Z,100.00
2024-01-14T06:31:35.640Z,100.00
2024-01-14T06:34:03.642Z,100.00
2024-01-14T06:36:30.818Z,100.00
2024-01-14T06:38:57.963Z,100.00
2024-01-14T06:41:26.070Z,100.00
2024-01-14T06:43:53.254Z,100.00
2024-01-14T06:46:20.317Z,100.00
2024-01-14T06:48:47.654Z,100.00
2024-01-14T06:51:14.986Z,100.00
2024-01-14T06:53:42.450Z,100.00
2024-01-14T06:56:09.963Z,100.00
2024-01-14T06:58:37.030Z,100.00
2024-01-14T07:01:05.306Z,100.00
2024-01-14T07:03:33.504Z,100.00
2024-01-14T07:06:00.714Z,100.00
2024-01-14T07:08:28.252Z,100.00
2024-01-14T07:10:55.554Z,100.00
2024-01-14T07:13:22.676Z,100.00
2024-01-14T07:15:49.878Z,100.00
2024-01-14T07:18:17.071Z,100.00
2024-01-14T07:20:44.204Z,100.00
2024-01-14T07:23:41.483Z,100.00
2024-01-14T07:25:58.360Z,100.00
2024-01-14T07:28:25.823Z,100.00
2024-01-14T07:30:53.027Z,100.00
2024-01-14T07:33:20.394Z,100.00
2024-01-14T07:35:47.545Z,100.00
2024-01-14T07:38:14.637Z,100.00
2024-01-14T07:40:42.587Z,100.00
2024-01-14T07:43:10.056Z,100.00
2024-01-14T07:45:37.318Z,100.00
2024-01-14T07:48:04.689Z,100.00
2024-01-14T07:50:31.800Z,100.00
2024-01-14T07:52:58.934Z,100.00
2024-01-14T07:55:26.056Z,100.00
2024-01-14T07:57:53.067Z,100.00
2024-01-14T08:00:20.372Z,100.00
2024-01-14T08:02:47.524Z,100.00
2024-01-14T08:05:14.953Z,100.00
2024-01-14T08:07:42.799Z,100.00
2024-01-14T08:10:11.192Z,100.00
2024-01-14T08:12:41.644Z,100.00
2024-01-14T08:15:10.464Z,100.00
2024-01-14T08:17:38.644Z,100.00
2024-01-14T08:20:06.757Z,100.00
2024-01-14T08:22:34.466Z,100.00
2024-01-14T08:25:01.625Z,100.00
2024-01-14T08:27:30.141Z,100.00
2024-01-14T08:29:57.254Z,100.00
2024-01-14T08:32:24.321Z,100.00
2024-01-14T08:34:51.501Z,100.00
2024-01-14T08:37:18.606Z,100.00
2024-01-14T08:39:45.749Z,100.00
2024-01-14T08:42:12.895Z,100.00
2024-01-14T08:44:40.368Z,100.00
2024-01-14T08:47:07.574Z,100.00
2024-01-14T08:49:34.994Z,100.00
2024-01-14T08:52:02.923Z,100.00
2024-01-14T08:54:33.061Z,100.00
2024-01-14T08:57:00.239Z,100.00
2024-01-14T08:59:27.426Z,100.00
2024-01-14T09:01:54.481Z,100.00
2024-01-14T09:04:21.706Z,100.00
2024-01-14T09:06:49.872Z,100.00
2024-01-14T09:09:17.018Z,100.00
2024-01-14T09:11:46.569Z,100.00
2024-01-14T09:14:14.311Z,100.00
2024-01-14T09:16:41.459Z,100.00
2024-01-14T09:19:09.955Z,100.00
2024-01-14T09:21:37.319Z,100.00
2024-01-14T09:24:05.234Z,100.00
2024-01-14T09:26:32.366Z,100.00
2024-01-14T09:28:59.437Z,100.00
2024-01-14T09:31:28.419Z,100.00
2024-01-14T09:33:55.696Z,100.00
2024-01-14T09:36:22.817Z,100.00
2024-01-14T09:38:49.978Z,100.00
2024-01-14T09:42:03.496Z,100.00
2024-01-14T09:44:30.590Z,100.00
2024-01-14T09:46:59.281Z,100.00
2024-01-14T09:49:26.525Z,100.00
2024-01-14T09:51:53.736Z,100.00
2024-01-14T09:54:20.888Z,100.00
2024-01-14T09:56:49.807Z,100.00
2024-01-14T09:59:18.228Z,100.00
2024-01-14T10:01:45.789Z,100.00
2024-01-14T10:04:17.621Z,100.00
2024-01-14T10:06:45.597Z,100.00
2024-01-14T10:09:12.894Z,100.00
2024-01-14T10:11:40.075Z,100.00
2024-01-14T10:14:07.159Z,100.00
2024-01-14T10:16:51.962Z,100.00
2024-01-14T10:19:25.899Z,100.00
2024-01-14T10:22:13.599Z,100.00
2024-01-14T10:24:42.196Z,100.00
2024-01-14T10:27:11.890Z,100.00
2024-01-14T10:29:39.039Z,100.00
2024-01-14T10:32:08.912Z,100.00
2024-01-14T10:34:36.300Z,100.00
2024-01-14T10:37:04.454Z,100.00
2024-01-14T10:39:33.045Z,100.00
2024-01-14T10:42:02.368Z,100.00
2024-01-14T10:44:29.622Z,100.00
2024-01-14T10:46:59.882Z,100.00
2024-01-14T10:49:28.175Z,100.00
2024-01-14T10:52:15.132Z,100.00
2024-01-14T10:54:51.014Z,100.00
2024-01-14T10:57:35.032Z,100.00
2024-01-14T11:00:07.858Z,100.00
2024-01-14T11:02:37.092Z,100.00
2024-01-14T11:05:06.340Z,100.00
2024-01-14T11:07:34.756Z,97.53
2024-01-14T11:10:06.898Z,97.61
2024-01-14T11:12:57.869Z,98.15
2024-01-14T11:15:25.862Z,96.49
2024-01-14T11:18:17.484Z,97.60
2024-01-14T11:21:00.888Z,96.26
2024-01-14T11:23:36.318Z,97.72
2024-01-14T11:26:03.465Z,97.86
2024-01-14T11:28:30.707Z,96.19
2024-01-14T11:31:00.625Z,97.33
2024-01-14T11:33:30.960Z,96.92
2024-01-14T11:35:59.942Z,96.95
2024-01-14T11:38:45.415Z,96.66
2024-01-14T11:41:32.838Z,97.12
2024-01-14T11:44:05.019Z,97.33
2024-01-14T11:46:34.948Z,98.64
2024-01-14T11:49:16.920Z,97.71
2024-01-14T11:52:00.864Z,99.05
2024-01-14T11:54:28.331Z,97.67
2024-01-14T11:56:55.928Z,99.05
2024-01-14T11:59:34.710Z,99.48
2024-01-14T12:02:16.702Z,99.63
2024-01-14T12:04:50.097Z,99.81
2024-01-14T12:07:23.139Z,100.00
2024-01-14T12:09:56.903Z,100.00
2024-01-14T12:12:26.051Z,100.00
2024-01-14T12:14:53.695Z,100.00
2024-01-14T12:17:20.917Z,100.00
2024-01-14T12:20:00.850Z,100.00
2024-01-14T12:22:28.556Z,100.00
2024-01-14T12:24:56.271Z,100.00
2024-01-14T12:27:23.592Z,100.00
2024-01-14T12:29:50.712Z,100.00
2024-01-14T12:32:18.571Z,100.00
2024-01-14T12:34:46.034Z,100.00
2024-01-14T12:37:14.084Z,100.00
2024-01-14T12:39:41.900Z,100.00
2024-01-14T12:42:12.737Z,100.00
2024-01-14T12:44:48.188Z,100.00
2024-01-14T12:47:19.632Z,100.00
2024-01-14T12:49:46.904Z,100.00
2024-01-14T12:52:14.056Z,100.00
2024-01-14T12:54:48.815Z,100.00
2024-01-14T12:57:20.790Z,100.00
2024-01-14T12:59:51.498Z,100.00
2024-01-14T13:02:18.840Z,100.00
2024-01-14T13:04:46.007Z,100.00
2024-01-14T13:07:14.027Z,100.00
2024-01-14T13:09:42.323Z,100.00
2024-01-14T13:12:10.036Z,100.00
2024-01-14T13:14:37.133Z,100.00
2024-01-14T13:17:04.438Z,100.00
2024-01-14T13:19:31.796Z,100.00
2024-01-14T13:21:58.970Z,100.00
2024-01-14T13:24:28.548Z,100.00
2024-01-14T13:26:57.622Z,100.00
2024-01-14T13:29:24.837Z,100.00
2024-01-14T13:31:52.126Z,100.00
2024-01-14T13:34:20.078Z,100.00
2024-01-14T13:36:47.988Z,100.00
2024-01-14T13:39:15.084Z,100.00
2024-01-14T13:41:42.216Z,100.00
2024-01-14T13:44:16.831Z,100.00
2024-01-14T13:46:47.055Z,100.00
2024-01-14T13:49:15.067Z,100.00
2024-01-14T13:51:42.313Z,100.00
2024-01-14T13:54:14.429Z,100.00
2024-01-14T13:56:45.883Z,100.00
2024-01-14T13:59:13.540Z,100.00
2024-01-14T14:01:41.472Z,100.00
2024-01-14T14:04:12.099Z,100.00
2024-01-14T14:06:40.088Z,100.00
2024-01-14T14:09:08.660Z,100.00
2024-01-14T14:11:36.818Z,100.00
2024-01-14T14:14:04.561Z,100.00
2024-01-14T14:16:39.338Z,100.00
2024-01-14T14:19:10.954Z,100.00
2024-01-14T14:21:51.030Z,100.00
2024-01-14T14:24:30.561Z,100.00
2024-01-14T14:26:58.087Z,100.00
2024-01-14T14:29:26.476Z,100.00
2024-01-14T14:31:55.443Z,100.00
2024-01-14T14:34:23.543Z,100.00
2024-01-14T14:36:51.388Z,100.00
2024-01-14T14:39:19.748Z,100.00
2024-01-14T14:41:48.169Z,100.00
2024-01-14T14:44:15.614Z,100.00
2024-01-14T14:46:42.754Z,100.00
2024-01-14T14:49:11.095Z,100.00
2024-01-14T14:51:40.985Z,100.00
2024-01-14T14:54:10.468Z,100.00
2024-01-14T14:56:38.322Z,100.00
2024-01-14T14:59:06.292Z,100.00
2024-01-14T15:01:41.747Z,100.00
2024-01-14T15:04:14.112Z,100.00
2024-01-14T15:06:43.377Z,100.00
2024-01-14T15:09:10.868Z,100.00
2024-01-14T15:11:40.056Z,100.00
2024-01-14T15:14:08.661Z,100.00
2024-01-14T15:16:38.786Z,100.00
2024-01-14T15:19:06.410Z,100.00
2024-01-14T15:21:34.022Z,100.00
2024-01-14T15:24:01.352Z,100.00
2024-01-14T15:26:29.332Z,100.00
2024-01-14T15:28:56.429Z,100.00
2024-01-14T15:31:23.632Z,100.00
2024-01-14T15:33:51.396Z,100.00
2024-01-14T15:36:19.820Z,100.00
2024-01-14T15:38:48.093Z,100.00
2024-01-14T15:41:16.223Z,100.00
2024-01-14T15:43:43.477Z,100.00
2024-01-14T15:46:11.032Z,100.00
2024-01-14T15:48:40.687Z,100.00
2024-01-14T15:51:11.567Z,100.00
2024-01-14T15:53:42.104Z,100.00
2024-01-14T15:56:09.441Z,100.00
2024-01-14T15:58:41.041Z,100.00
2024-01-14T16:01:12.370Z,100.00
2024-01-14T16:03:46.586Z,100.00
2024-01-14T16:06:16.078Z,100.00
2024-01-14T16:08:47.287Z,100.00
2024-01-14T16:11:15.560Z,100.00
2024-01-14T16:13:43.014Z,100.00
2024-01-14T16:16:10.945Z,100.00
2024-01-14T16:18:38.094Z,100.00
2024-01-14T16:21:07.260Z,100.00
2024-01-14T16:23:37.603Z,100.00
2024-01-14T16:26:05.619Z,100.00
2024-01-14T16:28:33.109Z,100.00
2024-01-14T16:31:09.611Z,100.00
2024-01-14T16:33:46.853Z,100.00
2024-01-14T16:36:16.780Z,100.00
2024-01-14T16:38:45.230Z,100.00
2024-01-14T16:41:13.259Z,100.00
2024-01-14T16:43:40.714Z,100.00
2024-01-14T16:46:07.953Z,100.00
2024-01-14T16:48:35.654Z,100.00
2024-01-14T16:51:09.300Z,100.00
2024-01-14T16:53:43.349Z,100.00
2024-01-14T16:56:15.348Z,100.00
2024-01-14T16:58:44.668Z,100.00
2024-01-14T17:01:17.146Z,100.00
2024-01-14T17:03:48.494Z,100.00
2024-01-14T17:06:17.278Z,100.00
2024-01-14T17:08:46.860Z,100.00
2024-01-14T17:11:15.630Z,100.00
2024-01-14T17:13:43.387Z,100.00
2024-01-14T17:16:25.468Z,100.00
2024-01-14T17:18:54.818Z,100.00
2024-01-14T17:21:22.809Z,100.00
2024-01-14T17:23:50.079Z,100.00
2024-01-14T17:26:18.100Z,100.00
2024-01-14T17:28:45.770Z,100.00
2024-01-14T17:31:15.521Z,100.00
2024-01-14T17:33:44.902Z,100.00
2024-01-14T17:36:13.956Z,100.00
2024-01-14T17:38:44.590Z,100.00
2024-01-14T17:41:12.056Z,100.00
2024-01-14T17:43:39.758Z,100.00
2024-01-14T17:46:09.581Z,100.00
2024-01-14T17:48:43.488Z,100.00
2024-01-14T17:51:12.266Z,100.00
2024-01-14T17:53:42.179Z,100.00
2024-01-14T17:56:09.267Z,100.00
2024-01-14T17:58:36.313Z,100.00
2024-01-14T18:01:06.481Z,100.00
2024-01-14T18:03:33.701Z,100.00
2024-01-14T18:06:01.050Z,100.00
2024-01-14T18:08:28.276Z,100.00
2024-01-14T18:10:55.486Z,100.00
2024-01-14T18:13:22.680Z,100.00
2024-01-14T18:15:50.595Z,100.00
2024-01-14T18:18:18.042Z,100.00
2024-01-14T18:20:45.484Z,100.00
2024-01-14T18:23:14.236Z,100.00
2024-01-14T18:25:43.598Z,100.00
2024-01-14T18:28:11.597Z,100.00
2024-01-14T18:30:39.182Z,100.00
2024-01-14T18:33:11.547Z,100.00
2024-01-14T18:35:46.450Z,100.00
2024-01-14T18:38:15.797Z,100.00
2024-01-14T18:40:43.576Z,100.00
2024-01-14T18:43:11.898Z,100.00
2024-01-14T18:45:39.646Z,100.00
2024-01-14T18:48:07.726Z,100.00
2024-01-14T18:50:35.742Z,100.00
2024-01-14T18:53:04.998Z,100.00
2024-01-14T18:55:32.131Z,100.00
2024-01-14T18:57:59.249Z,100.00
2024-01-14T19:00:26.473Z,100.00
2024-01-14T19:02:54.071Z,100.00
2024-01-14T19:05:21.384Z,100.00
2024-01-14T19:07:48.607Z,100.00
2024-01-14T19:10:16.018Z,100.00
2024-01-14T19:12:43.238Z,100.00
2024-01-14T19:15:10.531Z,100.00
2024-01-14T19:17:37.692Z,100.00
2024-01-14T19:20:06.311Z,100.00
2024-01-14T19:22:34.343Z,100.00
2024-01-14T19:25:02.639Z,100.00
2024-01-14T19:27:30.342Z,100.00
2024-01-14T19:29:57.491Z,100.00
2024-01-14T19:32:24.865Z,100.00
2024-01-14T19:34:52.068Z,100.00
2024-01-14T19:37:22.136Z,100.00
2024-01-14T19:39:49.928Z,100.00
2024-01-14T19:42:18.223Z,100.00
2024-01-14T19:44:45.455Z,100.00
2024-01-14T19:47:12.702Z,100.00
2024-01-14T19:49:40.069Z,100.00
2024-01-14T19:52:07.309Z,100.00
2024-01-14T19:54:37.329Z,100.00
2024-01-14T19:57:05.843Z,100.00
2024-01-14T19:59:33.367Z,100.00
2024-01-14T20:02:00.642Z,100.00
2024-01-14T20:04:28.150Z,100.00
2024-01-14T20:06:55.884Z,100.00
2024-01-14T20:09:24.610Z,100.00
2024-01-14T20:11:55.993Z,100.00
2024-01-14T20:14:23.405Z,100.00
2024-01-14T20:16:52.133Z,100.00
2024-01-14T20:19:20.636Z,100.00
2024-01-14T20:21:49.277Z,100.00
2024-01-14T20:24:16.527Z,100.00
2024-01-14T20:26:46.227Z,100.00
2024-01-14T20:29:13.389Z,100.00
2024-01-14T20:31:40.598Z,100.00
2024-01-14T20:34:08.101Z,100.00
2024-01-14T20:36:35.353Z,100.00
2024-01-14T20:39:02.687Z,100.00
2024-01-14T20:41:29.839Z,100.00
2024-01-14T20:43:56.888Z,100.00
2024-01-14T20:46:24.078Z,100.00
2024-01-14T20:48:52.150Z,100.00
2024-01-14T20:51:19.611Z,100.00
2024-01-14T20:53:46.999Z,100.00
2024-01-14T20:56:14.041Z,100.00
2024-01-14T20:58:41.114Z,100.00
2024-01-14T21:01:08.492Z,100.00
2024-01-14T21:03:36.015Z,100.00
2024-01-14T21:06:03.506Z,100.00
2024-01-14T21:08:31.007Z,100.00
2024-01-14T21:10:58.428Z,100.00
2024-01-14T21:13:25.919Z,100.00
2024-01-14T21:15:53.801Z,100.00
2024-01-14T21:18:23.752Z,100.00
2024-01-14T21:20:51.590Z,100.00
2024-01-14T21:23:20.346Z,100.00
2024-01-14T21:25:47.993Z,100.00
2024-01-14T21:28:15.284Z,100.00
2024-01-14T21:30:42.610Z,100.00
2024-01-14T21:33:10.100Z,100.00
2024-01-14T21:35:37.346Z,100.00
2024-01-14T21:38:04.675Z,100.00
2024-01-14T21:40:31.866Z,100.00
2024-01-14T21:42:59.070Z,100.00
2024-01-14T21:45:28.234Z,100.00
2024-01-14T21:47:56.137Z,100.00
2024-01-14T21:50:23.773Z,100.00
2024-01-14T21:52:51.110Z,100.00
2024-01-14T21:55:18.376Z,100.00
2024-01-14T21:57:46.135Z,100.00
2024-01-14T22:00:15.177Z,100.00
2024-01-14T22:02:42.541Z,100.00
2024-01-14T22:05:09.933Z,100.00
2024-01-14T22:07:37.000Z,100.00
2024-01-14T22:10:04.532Z,100.00
2024-01-14T22:12:31.617Z,100.00
2024-01-14T22:14:58.761Z,100.00
2024-01-14T22:17:25.910Z,100.00
2024-01-14T22:19:53.352Z,100.00
2024-01-14T22:22:20.492Z,100.00
2024-01-14T22:24:47.625Z,100.00
2024-01-14T22:27:14.720Z,100.00
2024-01-14T22:29:41.911Z,100.00
2024-01-14T22:32:08.981Z,100.00
2024-01-14T22:34:36.469Z,100.00
2024-01-14T22:37:03.877Z,100.00
2024-01-14T22:39:32.006Z,100.00
2024-01-14T22:41:59.826Z,100.00
2024-01-14T22:44:26.851Z,100.00
2024-01-14T22:46:55.826Z,100.00
2024-01-14T22:49:23.106Z,100.00
2024-01-14T22:51:51.023Z,100.00
2024-01-14T22:54:18.606Z,100.00
2024-01-14T22:56:46.514Z,100.00
2024-01-14T22:59:13.546Z,100.00
2024-01-14T23:01:40.677Z,100.00
2024-01-14T23:04:08.273Z,100.00
2024-01-14T23:06:35.877Z,100.00
2024-01-14T23:09:03.156Z,100.00
2024-01-14T23:11:30.220Z,100.00
2024-01-14T23:13:57.249Z,100.00
2024-01-14T23:16:24.281Z,100.00
2024-01-14T23:18:51.479Z,100.00
2024-01-14T23:21:18.746Z,100.00
2024-01-14T23:23:46.177Z,100.00
2024-01-14T23:26:13.264Z,100.00
2024-01-14T23:28:40.375Z,100.00
2024-01-14T23:31:08.320Z,100.00
2024-01-14T23:33:35.901Z,100.00
2024-01-14T23:36:04.249Z,100.00
2024-01-14T23:38:31.491Z,100.00
2024-01-14T23:40:58.619Z,100.00
2024-01-14T23:43:25.681Z,100.00
2024-01-14T23:45:53.544Z,100.00
2024-01-14T23:48:20.748Z,100.00
2024-01-14T23:50:47.880Z,100.00
2024-01-14T23:53:14.978Z,100.00
2024-01-14T23:55:42.702Z,100.00
2024-01-14T23:58:13.451Z,100.00
